createdAt,value
2022-09-18T00:01:32.413Z,98139.31
2022-09-18T00:04:02.742Z,98125.53
2022-09-18T00:06:32.280Z,98119.03
2022-09-18T00:09:02.888Z,98126.88
2022-09-18T00:11:38.495Z,98134.31
2022-09-18T00:14:08.006Z,98131.91
2022-09-18T00:16:36.791Z,98132.91
2022-09-18T00:19:07.424Z,98135.56
2022-09-18T00:21:37.498Z,98136.53
2022-09-18T00:24:07.306Z,98133.69
2022-09-18T00:26:36.710Z,98140.41
2022-09-18T00:29:05.829Z,98115.03
2022-09-18T00:31:36.510Z,98109.06
2022-09-18T00:34:07.803Z,98102.38
2022-09-18T00:36:36.586Z,98107.59
2022-09-18T00:39:05.270Z,98104.84
2022-09-18T00:41:36.099Z,98119.38
2022-09-18T00:44:35.399Z,98121.22
2022-09-18T00:47:16.172Z,98137.28
2022-09-18T00:49:47.331Z,98143.31
2022-09-18T00:52:18.075Z,98129.91
2022-09-18T00:54:49.555Z,98120.09
2022-09-18T00:57:20.360Z,98139.50
2022-09-18T00:59:51.005Z,98141.81
2022-09-18T01:02:19.447Z,98139.88
2022-09-18T01:04:48.432Z,98133.41
2022-09-18T01:07:29.223Z,98136.22
2022-09-18T01:10:07.278Z,98153.22
2022-09-18T01:12:46.924Z,98150.75
2022-09-18T01:15:26.888Z,98153.91
2022-09-18T01:18:04.934Z,98144.22
2022-09-18T01:20:56.690Z,98136.72
2022-09-18T01:23:51.926Z,98146.47
2022-09-18T01:26:29.858Z,98144.34
2022-09-18T01:29:04.966Z,98137.75
2022-09-18T01:31:39.836Z,98134.63
2022-09-18T01:34:14.836Z,98133.84
2022-09-18T01:36:50.172Z,98139.31
2022-09-18T01:39:24.042Z,98137.28
2022-09-18T01:41:53.176Z,98133.69
2022-09-18T01:44:27.687Z,98136.78
2022-09-18T01:46:59.799Z,98135.06
2022-09-18T01:49:34.314Z,98147.13
2022-09-18T01:52:08.681Z,98161.66
2022-09-18T01:54:46.175Z,98166.88
2022-09-18T01:57:20.811Z,98164.63
2022-09-18T01:59:57.208Z,98160.72
2022-09-18T02:02:31.179Z,98146.78
2022-09-18T02:05:02.198Z,98152.19
2022-09-18T02:07:37.078Z,98145.06
2022-09-18T02:10:07.334Z,98150.91
2022-09-18T02:12:37.546Z,98136.97
2022-09-18T02:15:12.877Z,98137.22
2022-09-18T02:17:44.808Z,98147.53
2022-09-18T02:20:19.938Z,98141.94
2022-09-18T02:22:52.766Z,98149.09
2022-09-18T02:25:25.392Z,98151.84
2022-09-18T02:27:55.979Z,98150.81
2022-09-18T02:30:27.068Z,98151.91
2022-09-18T02:32:56.273Z,98156.28
2022-09-18T02:35:29.077Z,98153.28
2022-09-18T02:38:05.754Z,98151.78
2022-09-18T02:40:44.732Z,98163.00
2022-09-18T02:43:25.247Z,98169.59
2022-09-18T02:46:05.061Z,98187.53
2022-09-18T02:48:49.114Z,98197.38
2022-09-18T02:51:28.622Z,98200.94
2022-09-18T02:54:03.771Z,98210.72
2022-09-18T02:56:40.630Z,98213.72
2022-09-18T02:59:14.468Z,98228.00
2022-09-18T03:01:46.694Z,98244.38
2022-09-18T03:04:20.988Z,98253.53
2022-09-18T03:06:49.021Z,98267.50
2022-09-18T03:09:17.238Z,98267.09
2022-09-18T03:11:45.584Z,98274.84
2022-09-18T03:14:13.998Z,98279.44
2022-09-18T03:16:43.603Z,98285.19
2022-09-18T03:19:11.944Z,98297.94
2022-09-18T03:21:40.185Z,98306.78
2022-09-18T03:24:08.964Z,98318.66
2022-09-18T03:26:37.302Z,98319.34
2022-09-18T03:29:09.789Z,98324.84
2022-09-18T03:31:38.112Z,98330.03
2022-09-18T03:34:08.124Z,98333.53
2022-09-18T03:36:36.394Z,98338.00
2022-09-18T03:39:05.053Z,98346.94
2022-09-18T03:41:33.567Z,98356.84
2022-09-18T03:44:01.642Z,98368.34
2022-09-18T03:46:29.679Z,98367.25
2022-09-18T03:48:58.099Z,98389.22
2022-09-18T03:51:27.631Z,98384.16
2022-09-18T03:53:55.813Z,98394.00
2022-09-18T03:56:23.830Z,98404.09
2022-09-18T03:58:53.344Z,98412.63
2022-09-18T04:01:21.576Z,98422.13
2022-09-18T04:03:49.889Z,98424.25
2022-09-18T04:06:17.956Z,98447.25
2022-09-18T04:08:47.405Z,98448.34
2022-09-18T04:11:15.390Z,98466.81
2022-09-18T04:13:43.363Z,98481.13
2022-09-18T04:16:11.462Z,98487.31
2022-09-18T04:18:39.536Z,98505.78
2022-09-18T04:21:07.721Z,98515.22
2022-09-18T04:23:35.762Z,98547.31
2022-09-18T04:26:09.968Z,98550.44
2022-09-18T04:28:39.120Z,98553.25
2022-09-18T04:31:07.565Z,98561.09
2022-09-18T04:33:35.674Z,98572.44
2022-09-18T04:36:03.962Z,98575.94
2022-09-18T04:38:32.140Z,98572.88
2022-09-18T04:41:01.447Z,98581.00
2022-09-18T04:43:30.838Z,98584.16
2022-09-18T04:45:59.776Z,98591.91
2022-09-18T04:48:27.932Z,98588.78
2022-09-18T04:50:56.067Z,98605.56
2022-09-18T04:53:24.036Z,98604.63
2022-09-18T04:55:52.282Z,98598.75
2022-09-18T04:58:21.109Z,98615.78
2022-09-18T05:00:51.270Z,98617.72
2022-09-18T05:03:19.547Z,98631.28
2022-09-18T05:05:48.411Z,98640.63
2022-09-18T05:08:16.413Z,98619.78
2022-09-18T05:10:44.581Z,98636.50
2022-09-18T05:13:12.655Z,98637.22
2022-09-18T05:15:40.906Z,98649.25
2022-09-18T05:18:12.700Z,98651.19
2022-09-18T05:20:40.875Z,98662.81
2022-09-18T05:23:08.900Z,98667.47
2022-09-18T05:25:37.020Z,98659.69
2022-09-18T05:28:05.931Z,98672.16
2022-09-18T05:30:34.106Z,98660.44
2022-09-18T05:33:03.763Z,98664.34
2022-09-18T05:35:34.879Z,98669.84
2022-09-18T05:38:04.136Z,98682.78
2022-09-18T05:40:35.121Z,98681.31
2022-09-18T05:43:04.079Z,98675.38
2022-09-18T05:45:32.548Z,98677.00
2022-09-18T05:48:03.354Z,98691.38
2022-09-18T05:50:33.139Z,98693.38
2022-09-18T05:53:01.878Z,98701.91
2022-09-18T05:55:31.980Z,98701.50
2022-09-18T05:58:03.633Z,98711.53
2022-09-18T06:00:33.849Z,98719.97
2022-09-18T06:03:03.995Z,98722.25
2022-09-18T06:05:35.341Z,98730.91
2022-09-18T06:08:04.398Z,98734.00
2022-09-18T06:10:34.663Z,98746.09
2022-09-18T06:13:03.661Z,98753.84
2022-09-18T06:15:32.259Z,98755.03
2022-09-18T06:18:00.614Z,98735.50
2022-09-18T06:20:28.883Z,98776.50
2022-09-18T06:23:01.870Z,98760.97
2022-09-18T06:25:30.598Z,98772.56
2022-09-18T06:28:00.334Z,98796.66
2022-09-18T06:30:30.201Z,98805.13
2022-09-18T06:33:02.976Z,98815.78
2022-09-18T06:35:31.431Z,98797.41
2022-09-18T06:38:03.991Z,98810.69
2022-09-18T06:40:33.103Z,98808.41
2022-09-18T06:43:02.833Z,98808.28
2022-09-18T06:45:32.163Z,98820.59
2022-09-18T06:48:02.892Z,98818.97
2022-09-18T06:50:31.014Z,98812.13
2022-09-18T06:53:07.655Z,98813.31
2022-09-18T06:55:38.211Z,98818.16
2022-09-18T06:58:06.424Z,98816.56
2022-09-18T07:00:34.619Z,98825.16
2022-09-18T07:03:03.978Z,98825.41
2022-09-18T07:05:34.147Z,98821.88
2022-09-18T07:08:04.060Z,98834.91
2022-09-18T07:10:32.053Z,98840.31
2022-09-18T07:13:02.355Z,98847.19
2022-09-18T07:15:30.613Z,98851.47
2022-09-18T07:18:00.269Z,98852.56
2022-09-18T07:20:29.597Z,98850.09
2022-09-18T07:23:17.897Z,98843.03
2022-09-18T07:25:46.811Z,98833.69
2022-09-18T07:28:14.985Z,98844.69
2022-09-18T07:30:43.343Z,98840.69
2022-09-18T07:33:11.982Z,98842.13
2022-09-18T07:35:40.689Z,98848.94
2022-09-18T07:38:09.289Z,98835.56
2022-09-18T07:40:40.549Z,98838.72
2022-09-18T07:43:11.329Z,98857.09
2022-09-18T07:45:39.962Z,98855.78
2022-09-18T07:48:09.381Z,98862.69
2022-09-18T07:50:37.866Z,98860.50
2022-09-18T07:53:07.999Z,98871.25
2022-09-18T07:55:38.181Z,98876.75
2022-09-18T07:58:08.405Z,98884.59
2022-09-18T08:00:38.221Z,98885.13
2022-09-18T08:03:07.918Z,98898.81
2022-09-18T08:05:36.435Z,98897.81
2022-09-18T08:08:05.385Z,98907.19
2022-09-18T08:10:35.413Z,98905.31
2022-09-18T08:13:05.325Z,98916.69
2022-09-18T08:15:35.090Z,98916.75
2022-09-18T08:18:03.075Z,98919.44
2022-09-18T08:20:31.296Z,98932.41
2022-09-18T08:22:59.519Z,98942.50
2022-09-18T08:25:28.588Z,98947.97
2022-09-18T08:28:00.362Z,98922.25
2022-09-18T08:30:30.820Z,98928.09
2022-09-18T08:33:00.644Z,98923.03
2022-09-18T08:35:28.996Z,98919.09
2022-09-18T08:37:58.245Z,98913.19
2022-09-18T08:40:42.393Z,98915.09
2022-09-18T08:43:20.669Z,98918.94
2022-09-18T08:45:58.684Z,98919.31
2022-09-18T08:48:30.924Z,98934.53
2022-09-18T08:51:05.036Z,98919.19
2022-09-18T08:53:37.770Z,98919.63
2022-09-18T08:56:08.870Z,98910.31
2022-09-18T08:58:43.803Z,98924.38
2022-09-18T09:01:19.184Z,98919.19
2022-09-18T09:03:57.176Z,98943.25
2022-09-18T09:06:42.509Z,98942.03
2022-09-18T09:09:29.161Z,98920.19
2022-09-18T09:12:04.650Z,98931.53
2022-09-18T09:14:58.146Z,98915.31
2022-09-18T09:17:40.085Z,98922.09
2022-09-18T09:20:21.439Z,98927.66
2022-09-18T09:22:57.985Z,98938.53
2022-09-18T09:25:34.038Z,98938.47
2022-09-18T09:28:16.199Z,98936.38
2022-09-18T09:30:48.479Z,98933.38
2022-09-18T09:33:23.419Z,98940.47
2022-09-18T09:35:56.148Z,98942.53
2022-09-18T09:38:36.685Z,98943.00
2022-09-18T09:41:14.997Z,98947.91
2022-09-18T09:43:50.709Z,98946.03
2022-09-18T09:46:30.022Z,98948.03
2022-09-18T09:49:06.805Z,98959.25
2022-09-18T09:51:46.223Z,98943.09
2022-09-18T09:54:14.335Z,98944.06
2022-09-18T09:56:52.391Z,98941.63
2022-09-18T09:59:28.581Z,98949.94
2022-09-18T10:02:01.754Z,98963.47
2022-09-18T10:04:39.210Z,98962.88
2022-09-18T10:07:16.502Z,98957.03
2022-09-18T10:09:49.931Z,98966.53
2022-09-18T10:12:27.089Z,98954.28
2022-09-18T10:15:06.645Z,98952.25
2022-09-18T10:17:39.442Z,98971.44
2022-09-18T10:20:16.559Z,98961.97
2022-09-18T10:22:44.710Z,98965.41
2022-09-18T10:25:21.935Z,98975.81
2022-09-18T10:27:49.945Z,98961.81
2022-09-18T10:30:18.358Z,98964.53
2022-09-18T10:32:46.488Z,98957.34
2022-09-18T10:35:50.117Z,98965.88
2022-09-18T10:38:34.398Z,98960.72
2022-09-18T10:41:28.124Z,98961.53
2022-09-18T10:44:00.705Z,98956.91
2022-09-18T10:46:34.569Z,98953.72
2022-09-18T10:49:18.644Z,98960.25
2022-09-18T10:51:46.869Z,98943.78
2022-09-18T10:54:23.234Z,98955.47
2022-09-18T10:56:51.666Z,98950.16
2022-09-18T10:59:35.059Z,98951.06
2022-09-18T11:02:07.014Z,98953.63
2022-09-18T11:04:35.814Z,98966.50
2022-09-18T11:07:07.641Z,98963.78
2022-09-18T11:09:41.432Z,98970.88
2022-09-18T11:12:19.030Z,98972.91
2022-09-18T11:14:51.655Z,98964.81
2022-09-18T11:17:26.034Z,98973.84
2022-09-18T11:19:57.615Z,98969.56
2022-09-18T11:22:40.330Z,98973.78
2022-09-18T11:25:19.763Z,98967.16
2022-09-18T11:27:51.191Z,98974.78
2022-09-18T11:30:24.265Z,98990.78
2022-09-18T11:32:55.741Z,98989.78
2022-09-18T11:35:23.981Z,98970.63
2022-09-18T11:37:54.720Z,98987.75
2022-09-18T11:40:27.211Z,98980.75
2022-09-18T11:42:56.340Z,98992.19
2022-09-18T11:45:36.764Z,98983.16
2022-09-18T11:48:14.977Z,98997.66
2022-09-18T11:50:43.273Z,99008.84
2022-09-18T11:53:16.039Z,98997.47
2022-09-18T11:55:49.755Z,98987.81
2022-09-18T11:58:23.440Z,98982.97
2022-09-18T12:01:07.993Z,98990.19
2022-09-18T12:03:42.419Z,98989.28
2022-09-18T12:06:16.625Z,99005.75
2022-09-18T12:08:51.254Z,98994.66
2022-09-18T12:11:31.949Z,98994.84
2022-09-18T12:14:09.184Z,99012.56
2022-09-18T12:16:46.235Z,98992.19
2022-09-18T12:19:21.062Z,98998.31
2022-09-18T12:21:56.542Z,99015.09
2022-09-18T12:24:24.747Z,98988.09
2022-09-18T12:27:13.201Z,99015.22
2022-09-18T12:30:06.424Z,98999.38
2022-09-18T12:33:07.441Z,98977.25
2022-09-18T12:35:47.891Z,98997.47
2022-09-18T12:38:34.689Z,99009.72
2022-09-18T12:41:27.345Z,99020.88
2022-09-18T12:44:29.156Z,98999.50
2022-09-18T12:47:13.743Z,99012.53
2022-09-18T12:50:17.827Z,99005.75
2022-09-18T12:53:08.676Z,99017.47
2022-09-18T12:56:03.297Z,99009.63
2022-09-18T12:59:15.605Z,99015.13
2022-09-18T13:01:50.198Z,99027.69
2022-09-18T13:04:25.148Z,99025.28
2022-09-18T13:06:58.068Z,99025.22
2022-09-18T13:09:31.268Z,99021.16
2022-09-18T13:12:03.219Z,99031.44
2022-09-18T13:14:37.571Z,99030.72
2022-09-18T13:17:16.795Z,99021.56
2022-09-18T13:19:50.754Z,99017.28
2022-09-18T13:22:21.291Z,99007.41
2022-09-18T13:24:55.768Z,99030.16
2022-09-18T13:27:26.207Z,99020.06
2022-09-18T13:30:00.610Z,99018.03
2022-09-18T13:32:43.544Z,99018.47
2022-09-18T13:35:29.818Z,99017.19
2022-09-18T13:38:07.919Z,99017.56
2022-09-18T13:40:39.334Z,99016.41
2022-09-18T13:43:25.400Z,99017.97
2022-09-18T13:45:54.618Z,99031.00
2022-09-18T13:48:29.841Z,99019.00
2022-09-18T13:51:00.771Z,99014.00
2022-09-18T13:53:34.951Z,99020.09
2022-09-18T13:56:04.290Z,99022.06
2022-09-18T13:58:54.506Z,99022.13
2022-09-18T14:02:04.073Z,99021.38
2022-09-18T14:05:02.362Z,99039.50
2022-09-18T14:07:54.727Z,99033.66
2022-09-18T14:10:27.164Z,99039.09
2022-09-18T14:13:30.484Z,99040.22
2022-09-18T14:16:06.080Z,99050.25
2022-09-18T14:18:38.819Z,99054.84
2022-09-18T14:21:28.528Z,99062.22
2022-09-18T14:24:23.388Z,99071.75
2022-09-18T14:27:26.226Z,99073.31
2022-09-18T14:29:59.688Z,99088.69
2022-09-18T14:32:29.546Z,99081.25
2022-09-18T14:35:20.665Z,99089.38
2022-09-18T14:37:50.164Z,99088.63
2022-09-18T14:40:24.889Z,99091.81
2022-09-18T14:42:53.322Z,99089.06
2022-09-18T14:45:29.887Z,99095.63
2022-09-18T14:47:59.191Z,99102.81
2022-09-18T14:50:37.781Z,99088.69
2022-09-18T14:53:21.708Z,99094.97
2022-09-18T14:55:53.576Z,99095.50
2022-09-18T14:58:24.953Z,99102.13
2022-09-18T15:00:55.522Z,99104.97
2022-09-18T15:03:27.432Z,99105.34
2022-09-18T15:06:06.798Z,99102.66
2022-09-18T15:08:39.006Z,99107.72
2022-09-18T15:11:07.669Z,99114.34
2022-09-18T15:13:38.833Z,99118.69
2022-09-18T15:16:07.633Z,99125.47
2022-09-18T15:18:42.965Z,99124.34
2022-09-18T15:21:24.469Z,99137.34
2022-09-18T15:23:56.046Z,99136.66
2022-09-18T15:26:29.145Z,99134.75
2022-09-18T15:28:58.440Z,99140.31
2022-09-18T15:31:31.544Z,99143.50
2022-09-18T15:34:04.399Z,99129.34
2022-09-18T15:36:35.617Z,99144.66
2022-09-18T15:39:06.159Z,99143.13
2022-09-18T15:41:42.634Z,99145.81
2022-09-18T15:45:10.248Z,99156.13
2022-09-18T15:47:40.832Z,99157.84
2022-09-18T15:50:44.957Z,99173.69
2022-09-18T15:53:23.329Z,99180.06
2022-09-18T15:56:05.222Z,99178.16
2022-09-18T15:58:38.708Z,99181.03
2022-09-18T16:01:09.321Z,99182.72
2022-09-18T16:03:42.642Z,99186.34
2022-09-18T16:06:23.899Z,99186.84
2022-09-18T16:08:55.569Z,99185.34
2022-09-18T16:11:47.508Z,99190.47
2022-09-18T16:14:44.369Z,99202.25
2022-09-18T16:17:36.996Z,99197.19
2022-09-18T16:20:30.518Z,99201.88
2022-09-18T16:23:05.948Z,99208.22
2022-09-18T16:25:37.969Z,99216.84
2022-09-18T16:28:24.219Z,99226.25
2022-09-18T16:30:53.060Z,99227.81
2022-09-18T16:33:23.667Z,99233.69
2022-09-18T16:35:57.715Z,99243.50
2022-09-18T16:38:25.700Z,99236.13
2022-09-18T16:40:55.083Z,99241.22
2022-09-18T16:43:24.651Z,99243.59
2022-09-18T16:45:52.871Z,99242.81
2022-09-18T16:48:21.130Z,99250.66
2022-09-18T16:50:49.829Z,99249.91
2022-09-18T16:53:17.807Z,99248.34
2022-09-18T16:55:48.705Z,99260.09
2022-09-18T16:58:20.073Z,99272.59
2022-09-18T17:00:49.764Z,99267.16
2022-09-18T17:03:19.222Z,99280.06
2022-09-18T17:05:47.572Z,99286.72
2022-09-18T17:08:15.872Z,99289.44
2022-09-18T17:10:45.327Z,99293.75
2022-09-18T17:13:14.135Z,99307.81
2022-09-18T17:15:42.361Z,99309.03
2022-09-18T17:18:11.777Z,99322.28
2022-09-18T17:20:40.105Z,99321.09
2022-09-18T17:23:08.327Z,99322.31
2022-09-18T17:25:37.223Z,99314.50
2022-09-18T17:28:05.380Z,99321.53
2022-09-18T17:30:33.490Z,99323.06
2022-09-18T17:33:02.154Z,99331.66
2022-09-18T17:35:31.719Z,99337.91
2022-09-18T17:38:00.161Z,99338.28
2022-09-18T17:40:28.528Z,99335.94
2022-09-18T17:42:56.755Z,99336.72
2022-09-18T17:45:24.824Z,99344.50
2022-09-18T17:47:55.012Z,99356.19
2022-09-18T17:50:24.817Z,99362.81
2022-09-18T17:52:54.647Z,99371.03
2022-09-18T17:55:22.830Z,99376.84
2022-09-18T17:57:53.082Z,99388.91
2022-09-18T18:00:21.849Z,99388.09
2022-09-18T18:02:50.245Z,99393.97
2022-09-18T18:05:19.334Z,99400.97
2022-09-18T18:07:47.400Z,99411.50
2022-09-18T18:10:16.930Z,99419.28
2022-09-18T18:12:45.502Z,99427.47
2022-09-18T18:15:13.896Z,99421.63
2022-09-18T18:17:43.073Z,99434.88
2022-09-18T18:20:11.796Z,99440.75
2022-09-18T18:22:39.999Z,99445.78
2022-09-18T18:25:09.768Z,99450.47
2022-09-18T18:27:39.290Z,99448.16
2022-09-18T18:30:08.925Z,99450.47
2022-09-18T18:32:37.012Z,99455.53
2022-09-18T18:35:05.950Z,99459.78
2022-09-18T18:37:34.099Z,99459.03
2022-09-18T18:40:02.285Z,99462.94
2022-09-18T18:42:30.419Z,99467.28
2022-09-18T18:45:01.145Z,99476.25
2022-09-18T18:47:29.947Z,99475.88
2022-09-18T18:49:58.221Z,99475.47
2022-09-18T18:52:26.680Z,99480.53
2022-09-18T18:54:54.862Z,99477.44
2022-09-18T18:57:23.246Z,99477.78
2022-09-18T18:59:51.518Z,99479.31
2022-09-18T19:02:21.476Z,99482.81
2022-09-18T19:04:49.682Z,99481.28
2022-09-18T19:07:17.737Z,99484.34
2022-09-18T19:09:45.804Z,99483.16
2022-09-18T19:12:14.262Z,99485.50
2022-09-18T19:14:42.491Z,99495.28
2022-09-18T19:17:11.073Z,99495.63
2022-09-18T19:19:40.908Z,99496.41
2022-09-18T19:22:15.287Z,99496.81
2022-09-18T19:24:44.042Z,99496.00
2022-09-18T19:27:12.681Z,99496.38
2022-09-18T19:29:40.769Z,99490.09
2022-09-18T19:32:09.256Z,99495.19
2022-09-18T19:34:37.502Z,99490.09
2022-09-18T19:37:11.727Z,99487.78
2022-09-18T19:39:40.882Z,99485.06
2022-09-18T19:42:14.945Z,99483.47
2022-09-18T19:44:46.922Z,99488.50
2022-09-18T19:47:18.654Z,99475.59
2022-09-18T19:49:47.164Z,99476.69
2022-09-18T19:52:19.271Z,99471.63
2022-09-18T19:54:48.444Z,99475.88
2022-09-18T19:57:16.711Z,99478.19
2022-09-18T19:59:45.146Z,99469.59
2022-09-18T20:02:14.932Z,99474.28
2022-09-18T20:04:44.506Z,99468.44
2022-09-18T20:07:13.096Z,99457.16
2022-09-18T20:09:45.977Z,99468.84
2022-09-18T20:12:14.831Z,99475.06
2022-09-18T20:14:42.846Z,99464.13
2022-09-18T20:17:11.321Z,99471.88
2022-09-18T20:19:39.411Z,99470.28
2022-09-18T20:22:08.387Z,99473.78
2022-09-18T20:24:36.680Z,99471.47
2022-09-18T20:27:12.660Z,99481.97
2022-09-18T20:29:41.746Z,99466.41
2022-09-18T20:32:10.183Z,99482.03
2022-09-18T20:34:38.413Z,99474.25
2022-09-18T20:37:07.329Z,99467.25
2022-09-18T20:39:35.319Z,99476.22
2022-09-18T20:42:03.759Z,99461.81
2022-09-18T20:44:35.125Z,99471.16
2022-09-18T20:47:03.380Z,99476.59
2022-09-18T20:49:32.170Z,99476.59
2022-09-18T20:52:03.701Z,99468.81
2022-09-18T20:54:31.867Z,99486.31
2022-09-18T20:57:01.410Z,99481.63
2022-09-18T20:59:29.530Z,99486.28
2022-09-18T21:01:59.555Z,99490.97
2022-09-18T21:04:27.663Z,99490.56
2022-09-18T21:06:56.681Z,99492.09
2022-09-18T21:09:27.439Z,99501.47
2022-09-18T21:11:57.597Z,99499.94
2022-09-18T21:14:27.522Z,99497.19
2022-09-18T21:16:56.057Z,99499.94
2022-09-18T21:19:27.276Z,99496.78
2022-09-18T21:21:56.690Z,99500.69
2022-09-18T21:24:25.782Z,99502.63
2022-09-18T21:26:53.830Z,99509.22
2022-09-18T21:29:25.192Z,99509.22
2022-09-18T21:31:55.209Z,99513.13
2022-09-18T21:34:27.074Z,99521.31
2022-09-18T21:36:57.842Z,99519.34
2022-09-18T21:39:28.236Z,99525.53
2022-09-18T21:41:56.368Z,99523.16
2022-09-18T21:44:27.305Z,99516.88
2022-09-18T21:46:56.623Z,99510.59
2022-09-18T21:49:27.822Z,99508.63
2022-09-18T21:51:57.788Z,99506.59
2022-09-18T21:54:26.387Z,99509.72
2022-09-18T21:56:55.543Z,99512.03
2022-09-18T21:59:26.547Z,99508.53
2022-09-18T22:01:55.664Z,99512.44
2022-09-18T22:04:27.852Z,99519.09
2022-09-18T22:06:58.381Z,99513.25
2022-09-18T22:09:28.929Z,99508.97
2022-09-18T22:11:58.023Z,99507.06
2022-09-18T22:14:32.153Z,99500.47
2022-09-18T22:17:01.667Z,99506.72
2022-09-18T22:19:33.216Z,99508.31
2022-09-18T22:22:01.886Z,99512.13
2022-09-18T22:24:30.847Z,99512.88
2022-09-18T22:27:02.596Z,99517.91
2022-09-18T22:29:32.919Z,99512.78
2022-09-18T22:32:02.199Z,99506.53
2022-09-18T22:34:34.946Z,99502.22
2022-09-18T22:37:03.600Z,99506.44
2022-09-18T22:39:31.703Z,99493.16
2022-09-18T22:41:59.880Z,99495.97
2022-09-18T22:44:27.946Z,99488.88
2022-09-18T22:46:55.933Z,99491.50
2022-09-18T22:49:24.704Z,99488.78
2022-09-18T22:51:54.175Z,99494.56
2022-09-18T22:54:26.457Z,99487.19
2022-09-18T22:56:56.657Z,99482.50
2022-09-18T22:59:26.563Z,99489.81
2022-09-18T23:01:57.698Z,99477.63
2022-09-18T23:04:29.871Z,99478.69
2022-09-18T23:07:00.438Z,99482.22
2022-09-18T23:09:29.298Z,99483.31
2022-09-18T23:11:59.010Z,99490.56
2022-09-18T23:14:29.043Z,99484.16
2022-09-18T23:16:58.436Z,99478.59
2022-09-18T23:19:28.062Z,99481.22
2022-09-18T23:21:57.522Z,99485.72
2022-09-18T23:24:27.765Z,99485.25
2022-09-18T23:26:58.954Z,99487.56
2022-09-18T23:29:28.750Z,99492.16
2022-09-18T23:31:57.698Z,99477.88
2022-09-18T23:34:28.930Z,99484.16
2022-09-18T23:36:58.217Z,99484.13
2022-09-18T23:39:29.911Z,99479.34
2022-09-18T23:41:59.415Z,99472.38
2022-09-18T23:44:31.192Z,99467.31
2022-09-18T23:47:00.151Z,99466.88
2022-09-18T23:49:28.636Z,99462.97
2022-09-18T23:51:57.442Z,99467.53
2022-09-18T23:54:28.053Z,99469.88
2022-09-18T23:56:56.706Z,99480.34
2022-09-18T23:59:26.427Z,99480.03
